Time;durP1;ratioP1;P1;durP2;ratioP2;P2;SDS_P1;SDS_P2;PMS_P1;PMS_P2;Temp;Humidity;BMP_temperature;BMP_pressure;BME280_temperature;BME280_humidity;BME280_pressure;Samples;Min_cycle;Max_cycle;Signal;HPM_P1;HPM_P2
2024/01/26 00:01:56;;;;;;;4.47;3.40;;;;;;;;;;4971712;28;20062;-77
2024/01/26 00:04:23;;;;;;;4.55;3.50;;;;;;;;;;4991936;28;20061;-77
2024/01/26 00:06:50;;;;;;;3.78;3.30;;;;;;;;;;4992811;28;20488;-77
2024/01/26 00:09:17;;;;;;;4.80;3.30;;;;;;;;;;4992901;28;20480;-77
2024/01/26 00:11:44;;;;;;;3.25;2.90;;;;;;;;;;4992996;28;20514;-77
2024/01/26 00:14:11;;;;;;;3.70;3.20;;;;;;;;;;4992803;28;20058;-77
2024/01/26 00:16:40;;;;;;;4.32;3.08;;;;;;;;;;4981206;28;20055;-78
2024/01/26 00:19:07;;;;;;;3.22;2.70;;;;;;;;;;4976589;28;20503;-76
2024/01/26 00:21:34;;;;;;;3.90;3.00;;;;;;;;;;4976733;28;20062;-77
2024/01/26 00:24:01;;;;;;;3.72;2.70;;;;;;;;;;4976942;28;20051;-78
2024/01/26 00:26:28;;;;;;;2.95;2.60;;;;;;;;;;4976978;28;20061;-77
2024/01/26 00:28:55;;;;;;;2.85;2.40;;;;;;;;;;4976792;28;20058;-76
2024/01/26 00:31:21;;;;;;;3.15;2.58;;;;;;;;;;4975626;28;20073;-77
2024/01/26 00:33:50;;;;;;;3.80;2.65;;;;;;;;;;4976708;28;20535;-76
2024/01/26 00:36:16;;;;;;;2.97;2.28;;;;;;;;;;4976292;28;20408;-77
2024/01/26 00:38:43;;;;;;;2.88;2.50;;;;;;;;;;4976700;28;20059;-78
2024/01/26 00:41:11;;;;;;;3.00;2.60;;;;;;;;;;4976730;28;20058;-77
2024/01/26 00:43:37;;;;;;;3.40;2.70;;;;;;;;;;4976892;28;20059;-77
2024/01/26 00:46:04;;;;;;;3.10;2.53;;;;;;;;;;4975866;28;20070;-77
2024/01/26 00:48:31;;;;;;;3.28;2.67;;;;;;;;;;4976321;28;20058;-76
2024/01/26 00:51:00;;;;;;;2.75;2.30;;;;;;;;;;4976593;28;20061;-78
2024/01/26 00:53:27;;;;;;;3.53;2.50;;;;;;;;;;4959281;28;20061;-77
2024/01/26 00:55:53;;;;;;;2.92;2.35;;;;;;;;;;4976797;28;20074;-75
2024/01/26 00:58:20;;;;;;;3.75;2.30;;;;;;;;;;4975835;28;20055;-76
2024/01/26 01:00:47;;;;;;;2.53;2.22;;;;;;;;;;4974472;28;20496;-78
2024/01/26 01:03:14;;;;;;;2.83;2.33;;;;;;;;;;4985738;28;20058;-77
2024/01/26 01:05:42;;;;;;;3.72;2.58;;;;;;;;;;4995574;28;20476;-77
2024/01/26 01:08:10;;;;;;;2.90;2.35;;;;;;;;;;4995562;28;20081;-77
2024/01/26 01:10:37;;;;;;;3.10;2.00;;;;;;;;;;4995551;28;20054;-77
2024/01/26 01:13:04;;;;;;;2.97;2.10;;;;;;;;;;4995666;28;20076;-77
2024/01/26 01:15:32;;;;;;;2.85;2.10;;;;;;;;;;4976763;28;20059;-78
2024/01/26 01:17:59;;;;;;;3.15;2.40;;;;;;;;;;4975480;28;20054;-78
2024/01/26 01:20:25;;;;;;;3.53;2.72;;;;;;;;;;4976106;28;20055;-77
2024/01/26 01:22:53;;;;;;;2.85;2.13;;;;;;;;;;4975503;28;20059;-78
2024/01/26 01:25:22;;;;;;;3.63;2.20;;;;;;;;;;4975512;28;20062;-78
2024/01/26 01:27:48;;;;;;;2.00;1.67;;;;;;;;;;4975020;28;20055;-76
2024/01/26 01:30:15;;;;;;;2.50;1.80;;;;;;;;;;4974026;28;20058;-78
2024/01/26 01:32:42;;;;;;;2.78;1.85;;;;;;;;;;4975566;28;20421;-76
2024/01/26 01:35:09;;;;;;;2.60;2.13;;;;;;;;;;4975372;28;20050;-78
2024/01/26 01:37:36;;;;;;;3.03;2.08;;;;;;;;;;4975808;28;20051;-78
2024/01/26 01:40:03;;;;;;;3.22;2.08;;;;;;;;;;4975220;28;20465;-77
2024/01/26 01:42:31;;;;;;;2.50;1.98;;;;;;;;;;4974569;28;20066;-77
2024/01/26 01:44:58;;;;;;;3.58;2.10;;;;;;;;;;4973292;28;20054;-78
2024/01/26 01:47:25;;;;;;;2.55;2.10;;;;;;;;;;4975714;28;20054;-77
2024/01/26 01:49:52;;;;;;;3.35;2.13;;;;;;;;;;4975027;28;20050;-78
2024/01/26 01:52:18;;;;;;;2.65;2.08;;;;;;;;;;4975113;28;20070;-78
2024/01/26 01:54:45;;;;;;;2.30;1.90;;;;;;;;;;4975288;28;20491;-78
2024/01/26 01:57:13;;;;;;;3.05;2.25;;;;;;;;;;4974917;28;20063;-78
2024/01/26 01:59:42;;;;;;;2.60;2.30;;;;;;;;;;4974519;28;20061;-78
2024/01/26 02:02:09;;;;;;;3.60;2.35;;;;;;;;;;4975239;28;20058;-77
2024/01/26 02:04:36;;;;;;;3.25;2.47;;;;;;;;;;4975068;28;20062;-77
2024/01/26 02:07:04;;;;;;;3.15;2.20;;;;;;;;;;4975272;28;20066;-77
2024/01/26 02:09:32;;;;;;;3.90;2.67;;;;;;;;;;4974701;28;20393;-77
2024/01/26 02:11:59;;;;;;;4.28;2.72;;;;;;;;;;4974598;28;20058;-77
2024/01/26 02:14:26;;;;;;;3.03;2.72;;;;;;;;;;4974549;28;20477;-77
2024/01/26 02:16:56;;;;;;;3.55;2.55;;;;;;;;;;4971963;28;20066;-77
2024/01/26 02:19:23;;;;;;;3.42;2.70;;;;;;;;;;4975055;28;20058;-77
2024/01/26 02:21:50;;;;;;;4.38;2.95;;;;;;;;;;4974259;28;20062;-77
2024/01/26 02:24:18;;;;;;;4.43;3.00;;;;;;;;;;4974796;28;20059;-77
2024/01/26 02:26:45;;;;;;;4.40;3.35;;;;;;;;;;4974227;28;20051;-77
2024/01/26 02:29:12;;;;;;;4.82;4.15;;;;;;;;;;4974290;28;20054;-76
2024/01/26 02:31:39;;;;;;;4.97;3.97;;;;;;;;;;4974441;28;20508;-77
2024/01/26 02:34:07;;;;;;;5.53;4.65;;;;;;;;;;4974388;28;20062;-77
2024/01/26 02:36:35;;;;;;;6.80;5.30;;;;;;;;;;4974932;28;20054;-77
2024/01/26 02:39:01;;;;;;;7.68;5.93;;;;;;;;;;4974981;28;20062;-77
2024/01/26 02:41:31;;;;;;;8.07;6.15;;;;;;;;;;4974386;28;20503;-77
2024/01/26 02:43:57;;;;;;;9.70;7.60;;;;;;;;;;4974215;28;20054;-77
2024/01/26 02:46:24;;;;;;;8.15;7.10;;;;;;;;;;4973521;28;20059;-77
2024/01/26 02:48:51;;;;;;;9.32;8.13;;;;;;;;;;4973930;28;20413;-77
2024/01/26 02:51:18;;;;;;;9.93;8.75;;;;;;;;;;4974528;28;20057;-77
2024/01/26 02:53:44;;;;;;;10.23;8.65;;;;;;;;;;4974456;28;20061;-77
2024/01/26 02:56:11;;;;;;;12.43;10.00;;;;;;;;;;4974958;28;20051;-77
2024/01/26 02:58:40;;;;;;;13.02;10.75;;;;;;;;;;4973991;28;20055;-76
2024/01/26 03:01:07;;;;;;;12.38;10.95;;;;;;;;;;4973093;28;20070;-77
2024/01/26 03:03:33;;;;;;;11.90;10.20;;;;;;;;;;4954802;29;20059;-76
2024/01/26 03:06:00;;;;;;;14.00;10.60;;;;;;;;;;4955125;28;20047;-77
2024/01/26 03:08:27;;;;;;;13.13;10.98;;;;;;;;;;4954293;29;20062;-77
2024/01/26 03:10:54;;;;;;;11.57;10.35;;;;;;;;;;4954626;29;20055;-76
2024/01/26 03:13:20;;;;;;;14.15;11.80;;;;;;;;;;4954348;29;20070;-77
2024/01/26 03:15:50;;;;;;;15.50;11.85;;;;;;;;;;4956333;28;20051;-76
2024/01/26 03:18:17;;;;;;;12.93;10.77;;;;;;;;;;4973935;28;20492;-77
2024/01/26 03:20:44;;;;;;;13.00;11.45;;;;;;;;;;4973941;28;20062;-77
2024/01/26 03:23:11;;;;;;;13.43;11.15;;;;;;;;;;4970063;28;20074;-76
2024/01/26 03:25:38;;;;;;;13.00;11.07;;;;;;;;;;4954693;29;20059;-77
2024/01/26 03:28:06;;;;;;;12.02;10.82;;;;;;;;;;4954440;29;20051;-77
2024/01/26 03:30:33;;;;;;;12.15;10.77;;;;;;;;;;4955020;29;20394;-76
2024/01/26 03:33:01;;;;;;;12.07;10.57;;;;;;;;;;4971374;28;20055;-77
2024/01/26 03:35:28;;;;;;;11.02;9.70;;;;;;;;;;4973963;28;20489;-77
2024/01/26 03:37:55;;;;;;;11.07;9.95;;;;;;;;;;4973457;28;20050;-76
2024/01/26 03:40:24;;;;;;;11.65;10.05;;;;;;;;;;4977132;28;20042;-76
2024/01/26 03:42:50;;;;;;;10.93;9.48;;;;;;;;;;4992834;28;20066;-77
2024/01/26 03:45:17;;;;;;;11.65;10.43;;;;;;;;;;4992944;28;20054;-77
2024/01/26 03:47:44;;;;;;;10.52;9.27;;;;;;;;;;4978673;28;20051;-77
2024/01/26 03:50:13;;;;;;;10.68;9.45;;;;;;;;;;4974112;28;20054;-77
2024/01/26 03:52:40;;;;;;;9.20;7.97;;;;;;;;;;4977059;28;20058;-76
2024/01/26 03:55:07;;;;;;;9.18;8.18;;;;;;;;;;4977556;28;20059;-77
2024/01/26 03:57:35;;;;;;;9.77;8.75;;;;;;;;;;4976865;28;20051;-76
2024/01/26 04:00:02;;;;;;;12.50;9.13;;;;;;;;;;4977305;28;20062;-77
2024/01/26 04:02:29;;;;;;;9.82;8.30;;;;;;;;;;4975438;28;20058;-77
2024/01/26 04:04:56;;;;;;;8.25;7.40;;;;;;;;;;4977243;28;20061;-77
2024/01/26 04:07:24;;;;;;;8.10;7.18;;;;;;;;;;4977214;28;20050;-77
2024/01/26 04:09:51;;;;;;;10.93;8.73;;;;;;;;;;4977210;28;20499;-76
2024/01/26 04:12:17;;;;;;;10.85;8.88;;;;;;;;;;4977347;28;20069;-76
2024/01/26 04:14:44;;;;;;;10.23;8.05;;;;;;;;;;4977067;28;20055;-77
2024/01/26 04:17:11;;;;;;;9.43;8.43;;;;;;;;;;4971939;28;20062;-76
2024/01/26 04:19:38;;;;;;;9.85;8.85;;;;;;;;;;4957644;28;20062;-76
2024/01/26 04:22:05;;;;;;;9.10;8.20;;;;;;;;;;4957028;29;20066;-75
2024/01/26 04:24:34;;;;;;;10.50;8.80;;;;;;;;;;4957241;29;20062;-76
2024/01/26 04:27:01;;;;;;;9.60;8.13;;;;;;;;;;4957853;29;20055;-76
2024/01/26 04:29:28;;;;;;;8.75;7.85;;;;;;;;;;4957287;29;20051;-76
2024/01/26 04:31:55;;;;;;;10.00;7.57;;;;;;;;;;4957793;28;20055;-76
2024/01/26 04:34:21;;;;;;;7.75;6.07;;;;;;;;;;4976273;28;20062;-76
2024/01/26 04:36:48;;;;;;;7.18;6.22;;;;;;;;;;4976537;28;20473;-76
2024/01/26 04:39:16;;;;;;;6.35;5.63;;;;;;;;;;4976373;28;20061;-76
2024/01/26 04:41:44;;;;;;;5.80;5.20;;;;;;;;;;4990802;28;20050;-76
2024/01/26 04:44:11;;;;;;;6.10;5.50;;;;;;;;;;4995881;28;20054;-76
2024/01/26 04:46:38;;;;;;;6.68;5.45;;;;;;;;;;4995647;28;20050;-76
2024/01/26 04:49:05;;;;;;;5.55;4.38;;;;;;;;;;4977547;28;20065;-76
2024/01/26 04:51:31;;;;;;;5.63;3.95;;;;;;;;;;4976061;28;20055;-76
2024/01/26 04:53:58;;;;;;;4.10;3.70;;;;;;;;;;4976488;28;20066;-76
2024/01/26 04:56:25;;;;;;;5.30;3.80;;;;;;;;;;4976400;28;20059;-77
2024/01/26 04:58:53;;;;;;;3.83;3.38;;;;;;;;;;4976295;28;20055;-77
2024/01/26 05:01:20;;;;;;;4.60;3.80;;;;;;;;;;4976276;28;20055;-76
2024/01/26 05:03:47;;;;;;;5.35;3.90;;;;;;;;;;4973584;28;20054;-77
2024/01/26 05:06:14;;;;;;;6.40;4.10;;;;;;;;;;4976647;28;20058;-76
2024/01/26 05:08:41;;;;;;;5.15;4.55;;;;;;;;;;4975457;28;20055;-77
2024/01/26 05:11:08;;;;;;;5.30;4.80;;;;;;;;;;4975327;28;20046;-76
2024/01/26 05:13:35;;;;;;;5.63;4.88;;;;;;;;;;4976019;28;20070;-76
2024/01/26 05:16:03;;;;;;;6.20;4.80;;;;;;;;;;4976011;28;20054;-76
2024/01/26 05:18:30;;;;;;;7.10;5.35;;;;;;;;;;4973959;28;20059;-76
2024/01/26 05:20:57;;;;;;;6.72;5.20;;;;;;;;;;4976012;28;20054;-77
2024/01/26 05:23:24;;;;;;;7.18;5.80;;;;;;;;;;4975784;28;20085;-76
2024/01/26 05:25:51;;;;;;;6.80;6.10;;;;;;;;;;4975895;28;20066;-76
2024/01/26 05:28:17;;;;;;;7.00;5.70;;;;;;;;;;4975712;28;20051;-77
2024/01/26 05:30:44;;;;;;;7.05;5.47;;;;;;;;;;4975593;28;20503;-77
2024/01/26 05:33:12;;;;;;;6.15;5.55;;;;;;;;;;4974744;28;20384;-76
2024/01/26 05:35:39;;;;;;;7.38;5.95;;;;;;;;;;4973512;28;20051;-77
2024/01/26 05:38:06;;;;;;;6.57;5.60;;;;;;;;;;4975379;28;20054;-77
2024/01/26 05:40:33;;;;;;;6.93;5.45;;;;;;;;;;4975628;28;20050;-76
2024/01/26 05:42:59;;;;;;;6.47;4.95;;;;;;;;;;4975395;28;20533;-76
2024/01/26 05:45:26;;;;;;;5.45;4.88;;;;;;;;;;4974377;28;20055;-77
2024/01/26 05:47:53;;;;;;;5.97;4.75;;;;;;;;;;4967166;28;20047;-76
2024/01/26 05:50:21;;;;;;;5.43;4.57;;;;;;;;;;4968093;28;20062;-77
2024/01/26 05:52:48;;;;;;;5.70;4.47;;;;;;;;;;4975153;28;20507;-77
2024/01/26 05:55:15;;;;;;;4.28;3.83;;;;;;;;;;4975062;28;20062;-76
2024/01/26 05:57:43;;;;;;;5.38;4.68;;;;;;;;;;4975301;28;20066;-76
2024/01/26 06:00:10;;;;;;;4.88;4.32;;;;;;;;;;4975320;28;20058;-76
2024/01/26 06:02:37;;;;;;;5.03;4.22;;;;;;;;;;4973783;28;20054;-77
2024/01/26 06:05:03;;;;;;;6.15;5.00;;;;;;;;;;4975292;28;20515;-76
2024/01/26 06:07:32;;;;;;;6.50;4.50;;;;;;;;;;4975366;28;20054;-76
2024/01/26 06:09:59;;;;;;;5.68;4.90;;;;;;;;;;4974982;28;20065;-76
2024/01/26 06:12:25;;;;;;;5.60;5.00;;;;;;;;;;4974654;28;20050;-77
2024/01/26 06:14:52;;;;;;;5.63;4.80;;;;;;;;;;4974573;28;20055;-77
2024/01/26 06:17:19;;;;;;;5.35;4.60;;;;;;;;;;4972730;28;20065;-76
2024/01/26 06:19:46;;;;;;;4.95;4.20;;;;;;;;;;4955370;28;20062;-76
2024/01/26 06:22:13;;;;;;;5.75;4.35;;;;;;;;;;4955322;29;20051;-76
2024/01/26 06:24:41;;;;;;;4.55;4.00;;;;;;;;;;4955270;29;20507;-76
2024/01/26 06:27:08;;;;;;;4.85;3.40;;;;;;;;;;4954791;29;20062;-75
2024/01/26 06:29:34;;;;;;;5.82;3.35;;;;;;;;;;4955232;28;20059;-76
2024/01/26 06:32:01;;;;;;;3.88;3.45;;;;;;;;;;4955378;29;20058;-76
2024/01/26 06:34:28;;;;;;;5.60;3.10;;;;;;;;;;4973243;28;20499;-76
2024/01/26 06:36:55;;;;;;;4.30;3.25;;;;;;;;;;4970343;28;20054;-76
2024/01/26 06:39:22;;;;;;;3.85;3.05;;;;;;;;;;4972768;28;20059;-76
2024/01/26 06:41:50;;;;;;;3.42;2.78;;;;;;;;;;4974784;28;20377;-76
2024/01/26 06:44:17;;;;;;;3.88;2.28;;;;;;;;;;4974587;28;20082;-77
2024/01/26 06:46:43;;;;;;;4.57;2.38;;;;;;;;;;4969435;28;20062;-76
2024/01/26 06:49:11;;;;;;;2.90;2.35;;;;;;;;;;4974622;28;20055;-76
2024/01/26 06:51:38;;;;;;;3.75;2.30;;;;;;;;;;4974294;28;20069;-76
2024/01/26 06:54:05;;;;;;;2.90;2.08;;;;;;;;;;4963302;28;20066;-76
2024/01/26 06:56:32;;;;;;;2.70;2.28;;;;;;;;;;4954985;29;20055;-76
2024/01/26 06:59:00;;;;;;;2.67;2.22;;;;;;;;;;4955362;29;20489;-75
2024/01/26 07:01:27;;;;;;;2.78;2.25;;;;;;;;;;4964232;28;20143;-77
2024/01/26 07:03:53;;;;;;;2.55;2.08;;;;;;;;;;4974538;28;20465;-77
2024/01/26 07:06:20;;;;;;;2.33;1.92;;;;;;;;;;4974037;28;20460;-77
2024/01/26 07:08:47;;;;;;;2.65;1.90;;;;;;;;;;4974457;28;20050;-76
2024/01/26 07:11:16;;;;;;;2.85;1.80;;;;;;;;;;4974234;28;20051;-76
2024/01/26 07:13:43;;;;;;;2.67;1.92;;;;;;;;;;4965279;28;20050;-77
2024/01/26 07:16:11;;;;;;;2.40;1.80;;;;;;;;;;4971987;28;20070;-75
2024/01/26 07:18:38;;;;;;;2.88;1.70;;;;;;;;;;4974240;28;20054;-76
2024/01/26 07:21:08;;;;;;;3.47;1.90;;;;;;;;;;4970222;28;20047;-76
2024/01/26 07:23:35;;;;;;;2.70;1.40;;;;;;;;;;4971000;28;20058;-76
2024/01/26 07:26:02;;;;;;;3.20;1.98;;;;;;;;;;4975606;28;20065;-75
2024/01/26 07:28:28;;;;;;;3.35;2.10;;;;;;;;;;4965690;28;20058;-77
2024/01/26 07:30:55;;;;;;;2.60;1.90;;;;;;;;;;4964875;28;20381;-76
2024/01/26 07:33:24;;;;;;;3.05;2.03;;;;;;;;;;4961941;28;20059;-76
2024/01/26 07:35:50;;;;;;;4.15;2.35;;;;;;;;;;4972407;28;20058;-77
2024/01/26 07:38:17;;;;;;;2.83;1.92;;;;;;;;;;4971606;28;20436;-76
2024/01/26 07:40:44;;;;;;;3.90;2.10;;;;;;;;;;4972782;28;20058;-77
2024/01/26 07:43:11;;;;;;;5.55;2.28;;;;;;;;;;4970762;28;20047;-77
2024/01/26 07:45:38;;;;;;;2.92;2.10;;;;;;;;;;4972096;28;20054;-77
2024/01/26 07:48:05;;;;;;;2.70;1.70;;;;;;;;;;4974384;28;20055;-78
2024/01/26 07:50:33;;;;;;;3.33;1.70;;;;;;;;;;4973937;28;20059;-78
2024/01/26 07:53:00;;;;;;;2.47;2.00;;;;;;;;;;4972884;28;20523;-76
2024/01/26 07:55:27;;;;;;;2.45;1.70;;;;;;;;;;4973428;28;20066;-77
2024/01/26 07:57:53;;;;;;;2.20;1.55;;;;;;;;;;4970313;28;20055;-76
2024/01/26 08:00:21;;;;;;;5.03;2.05;;;;;;;;;;4970431;28;20058;-77
2024/01/26 08:02:48;;;;;;;3.67;2.00;;;;;;;;;;4973061;28;20058;-77
2024/01/26 08:05:15;;;;;;;2.25;1.75;;;;;;;;;;4971444;28;20055;-76
2024/01/26 08:07:43;;;;;;;2.58;1.98;;;;;;;;;;4972789;28;20066;-76
2024/01/26 08:10:10;;;;;;;6.30;1.83;;;;;;;;;;4972776;28;20055;-77
2024/01/26 08:12:38;;;;;;;3.00;2.10;;;;;;;;;;4972994;28;20047;-78
2024/01/26 08:15:05;;;;;;;8.05;2.22;;;;;;;;;;4973898;28;20057;-78
2024/01/26 08:17:32;;;;;;;3.25;2.30;;;;;;;;;;4966473;28;20074;-78
2024/01/26 08:20:01;;;;;;;3.10;2.00;;;;;;;;;;4973269;28;20066;-78
2024/01/26 08:22:28;;;;;;;3.05;2.30;;;;;;;;;;4972740;28;20059;-79
2024/01/26 08:24:58;;;;;;;3.97;2.33;;;;;;;;;;4973173;28;20070;-75
2024/01/26 08:27:25;;;;;;;10.13;2.90;;;;;;;;;;4972962;28;20071;-76
2024/01/26 08:29:52;;;;;;;5.82;3.65;;;;;;;;;;4972976;28;20066;-76
2024/01/26 08:32:19;;;;;;;6.25;2.90;;;;;;;;;;4972072;28;20054;-77
2024/01/26 08:34:46;;;;;;;4.95;2.45;;;;;;;;;;4972146;28;20073;-77
2024/01/26 08:37:12;;;;;;;15.18;2.97;;;;;;;;;;4971499;28;20477;-76
2024/01/26 08:39:39;;;;;;;6.03;2.55;;;;;;;;;;4972487;28;20059;-77
2024/01/26 08:42:08;;;;;;;10.70;2.75;;;;;;;;;;4971429;28;20051;-79
2024/01/26 08:44:35;;;;;;;5.28;2.58;;;;;;;;;;4965794;28;20050;-79
2024/01/26 08:47:01;;;;;;;3.60;2.33;;;;;;;;;;4970375;28;20568;-80
2024/01/26 08:49:28;;;;;;;5.70;2.40;;;;;;;;;;4972879;28;20063;-80
2024/01/26 08:51:57;;;;;;;3.90;2.70;;;;;;;;;;4971942;28;20047;-79
2024/01/26 08:54:24;;;;;;;3.13;1.77;;;;;;;;;;4971161;28;20066;-80
2024/01/26 08:56:51;;;;;;;18.08;2.65;;;;;;;;;;4973567;28;20058;-80
2024/01/26 08:59:19;;;;;;;4.95;2.50;;;;;;;;;;4976101;28;20051;-81
2024/01/26 09:01:46;;;;;;;3.85;2.30;;;;;;;;;;4975075;28;20050;-81
2024/01/26 09:04:13;;;;;;;3.20;2.40;;;;;;;;;;4971141;28;20057;-80
2024/01/26 09:06:40;;;;;;;3.05;1.80;;;;;;;;;;4976352;28;20074;-79
2024/01/26 09:09:08;;;;;;;4.60;2.28;;;;;;;;;;4973797;28;20492;-80
2024/01/26 09:11:35;;;;;;;2.58;1.90;;;;;;;;;;4975921;28;20077;-80
2024/01/26 09:14:02;;;;;;;4.63;2.72;;;;;;;;;;4975513;28;20051;-79
2024/01/26 09:16:30;;;;;;;3.40;2.45;;;;;;;;;;4974806;28;20059;-77
2024/01/26 09:18:58;;;;;;;4.32;2.92;;;;;;;;;;4973566;28;20057;-80
2024/01/26 09:21:25;;;;;;;4.67;3.63;;;;;;;;;;4972924;28;20502;-79
2024/01/26 09:23:52;;;;;;;4.93;3.83;;;;;;;;;;4975369;28;20050;-80
2024/01/26 09:26:21;;;;;;;7.13;5.15;;;;;;;;;;4975156;28;20074;-80
2024/01/26 09:28:48;;;;;;;9.27;7.25;;;;;;;;;;4971307;28;20059;-81
2024/01/26 09:31:15;;;;;;;10.70;8.15;;;;;;;;;;4969256;28;20054;-80
2024/01/26 09:33:43;;;;;;;11.77;9.07;;;;;;;;;;4973074;28;20047;-79
2024/01/26 09:36:10;;;;;;;12.98;9.68;;;;;;;;;;4977416;28;20420;-80
2024/01/26 09:38:37;;;;;;;12.27;9.73;;;;;;;;;;4970723;28;20051;-79
2024/01/26 09:41:04;;;;;;;13.15;10.93;;;;;;;;;;4963770;28;20078;-79
2024/01/26 09:43:30;;;;;;;14.20;10.48;;;;;;;;;;4971743;28;20393;-79
2024/01/26 09:45:57;;;;;;;14.57;11.40;;;;;;;;;;4973662;28;20046;-79
2024/01/26 09:48:24;;;;;;;14.82;10.95;;;;;;;;;;4969849;28;20066;-79
2024/01/26 09:50:53;;;;;;;12.73;10.40;;;;;;;;;;4974543;28;20050;-79
2024/01/26 09:53:19;;;;;;;11.63;9.75;;;;;;;;;;4975339;28;20396;-79
2024/01/26 09:55:47;;;;;;;19.45;11.90;;;;;;;;;;4974987;28;20058;-80
2024/01/26 09:58:14;;;;;;;8.52;7.63;;;;;;;;;;4975492;28;20050;-79
2024/01/26 10:00:42;;;;;;;11.55;8.43;;;;;;;;;;4974248;28;20054;-79
2024/01/26 10:03:08;;;;;;;8.70;6.88;;;;;;;;;;4974995;28;20051;-79
2024/01/26 10:05:36;;;;;;;7.88;5.57;;;;;;;;;;4971822;28;20051;-79
2024/01/26 10:08:07;;;;;;;7.60;6.35;;;;;;;;;;4972815;28;20050;-79
2024/01/26 10:10:34;;;;;;;7.90;6.28;;;;;;;;;;4974876;28;20061;-79
2024/01/26 10:13:01;;;;;;;5.22;4.57;;;;;;;;;;4971989;28;20046;-78
2024/01/26 10:15:29;;;;;;;7.10;5.72;;;;;;;;;;4974292;28;20053;-77
2024/01/26 10:17:56;;;;;;;6.15;4.63;;;;;;;;;;4970049;28;20047;-79
2024/01/26 10:20:22;;;;;;;6.32;4.15;;;;;;;;;;4974001;28;20050;-79
2024/01/26 10:22:49;;;;;;;4.80;4.30;;;;;;;;;;4973514;28;20051;-79
2024/01/26 10:25:18;;;;;;;9.57;5.80;;;;;;;;;;4968932;28;20534;-78
2024/01/26 10:27:45;;;;;;;6.28;4.57;;;;;;;;;;4972916;28;20055;-77
2024/01/26 10:30:13;;;;;;;5.05;4.25;;;;;;;;;;4974543;28;20062;-77
2024/01/26 10:32:40;;;;;;;4.80;3.70;;;;;;;;;;4970293;28;20400;-79
2024/01/26 10:35:08;;;;;;;6.25;3.83;;;;;;;;;;4982926;28;20063;-79
2024/01/26 10:37:36;;;;;;;7.55;4.57;;;;;;;;;;4987998;28;20054;-78
2024/01/26 10:40:05;;;;;;;4.35;3.30;;;;;;;;;;4971865;28;20484;-78
2024/01/26 10:42:33;;;;;;;5.28;3.85;;;;;;;;;;4974206;28;20055;-79
2024/01/26 10:45:01;;;;;;;4.50;3.55;;;;;;;;;;4975170;28;20495;-79
2024/01/26 10:47:28;;;;;;;5.07;3.53;;;;;;;;;;4975152;28;20070;-79
2024/01/26 10:49:57;;;;;;;5.25;3.75;;;;;;;;;;4972196;28;20055;-79
2024/01/26 10:52:24;;;;;;;7.30;4.63;;;;;;;;;;4974277;28;20059;-78
2024/01/26 10:54:51;;;;;;;3.95;3.20;;;;;;;;;;4962360;28;20054;-78
2024/01/26 10:57:19;;;;;;;4.57;3.22;;;;;;;;;;4966788;28;20053;-78
2024/01/26 10:59:47;;;;;;;6.38;4.18;;;;;;;;;;4970550;28;20051;-77
2024/01/26 11:02:15;;;;;;;9.57;4.35;;;;;;;;;;4970680;28;20050;-75
2024/01/26 11:04:43;;;;;;;9.00;4.47;;;;;;;;;;4959640;28;20062;-75
2024/01/26 11:07:10;;;;;;;9.30;5.28;;;;;;;;;;4955399;28;20409;-82
2024/01/26 11:09:38;;;;;;;6.72;3.22;;;;;;;;;;4969462;28;20058;-79
2024/01/26 11:12:08;;;;;;;5.95;3.80;;;;;;;;;;4956141;28;20055;-77
2024/01/26 11:14:35;;;;;;;;;;;;;;;;;;4969361;28;20055;-77
2024/01/26 11:17:12;;;;;;;5.22;2.25;;;;;;;;;;4973510;28;20241;-78
2024/01/26 11:19:39;;;;;;;5.30;2.67;;;;;;;;;;4971764;28;20066;-77
2024/01/26 11:22:06;;;;;;;4.63;3.25;;;;;;;;;;4968807;28;20055;-77
2024/01/26 11:24:34;;;;;;;4.95;3.70;;;;;;;;;;4965249;28;20062;-77
2024/01/26 11:27:02;;;;;;;6.82;4.40;;;;;;;;;;4971622;28;20057;-77
2024/01/26 11:29:33;;;;;;;4.82;3.70;;;;;;;;;;4968729;28;20058;-77
2024/01/26 11:32:00;;;;;;;4.88;2.90;;;;;;;;;;4966058;28;20488;-77
2024/01/26 11:34:28;;;;;;;7.75;2.85;;;;;;;;;;4967109;28;20070;-77
2024/01/26 11:37:10;;;;;;;5.13;2.13;;;;;;;;;;4973456;28;20062;-77
2024/01/26 11:39:37;;;;;;;3.90;1.80;;;;;;;;;;4973606;28;20057;-76
2024/01/26 11:42:07;;;;;;;4.47;1.70;;;;;;;;;;4973978;28;20066;-76
2024/01/26 11:44:38;;;;;;;4.90;1.90;;;;;;;;;;4972080;28;20058;-80
2024/01/26 11:47:05;;;;;;;7.72;2.35;;;;;;;;;;4970576;28;20135;-80
2024/01/26 11:49:33;;;;;;;6.88;1.80;;;;;;;;;;4972800;28;20066;-81
2024/01/26 11:52:00;;;;;;;4.32;1.50;;;;;;;;;;4973314;28;20051;-80
2024/01/26 11:54:27;;;;;;;5.10;2.10;;;;;;;;;;4973812;28;20050;-80
2024/01/26 11:56:54;;;;;;;9.55;2.67;;;;;;;;;;4973314;28;20058;-80
2024/01/26 11:59:22;;;;;;;7.25;2.70;;;;;;;;;;4973425;28;20055;-81
2024/01/26 12:01:48;;;;;;;6.82;2.97;;;;;;;;;;4973756;28;20051;-79
2024/01/26 12:04:17;;;;;;;8.48;2.05;;;;;;;;;;4973671;28;20070;-80
2024/01/26 12:06:45;;;;;;;7.15;1.77;;;;;;;;;;4963639;28;20074;-81
2024/01/26 12:09:12;;;;;;;5.85;1.40;;;;;;;;;;4972385;28;20069;-79
2024/01/26 12:11:39;;;;;;;3.75;1.17;;;;;;;;;;4972854;28;20062;-80
2024/01/26 12:14:06;;;;;;;7.22;1.70;;;;;;;;;;4976274;28;20069;-79
2024/01/26 12:16:33;;;;;;;8.25;1.38;;;;;;;;;;4976086;28;20065;-81
2024/01/26 12:19:00;;;;;;;7.13;1.60;;;;;;;;;;4959058;28;20058;-80
2024/01/26 12:21:27;;;;;;;4.60;1.58;;;;;;;;;;4974905;28;20054;-80
2024/01/26 12:23:55;;;;;;;4.72;1.30;;;;;;;;;;4976152;28;20420;-81
2024/01/26 12:26:22;;;;;;;4.75;1.30;;;;;;;;;;4967418;28;20410;-81
2024/01/26 12:28:49;;;;;;;7.28;1.80;;;;;;;;;;4977347;28;20050;-82
2024/01/26 12:31:16;;;;;;;7.15;1.70;;;;;;;;;;4970472;28;20062;-81
2024/01/26 12:33:45;;;;;;;7.55;1.60;;;;;;;;;;4957959;29;20051;-82
2024/01/26 12:36:13;;;;;;;8.60;2.05;;;;;;;;;;4970145;28;20507;-79
2024/01/26 12:38:40;;;;;;;6.93;1.85;;;;;;;;;;4977020;28;20488;-79
2024/01/26 12:41:08;;;;;;;6.20;1.90;;;;;;;;;;4976313;28;20051;-79
2024/01/26 12:43:35;;;;;;;7.85;1.75;;;;;;;;;;4976733;28;20073;-79
2024/01/26 12:46:04;;;;;;;8.43;1.70;;;;;;;;;;4969330;28;20058;-79
2024/01/26 12:48:31;;;;;;;7.47;1.40;;;;;;;;;;4976335;28;20066;-79
2024/01/26 12:51:00;;;;;;;6.57;1.80;;;;;;;;;;4975322;28;20051;-85
2024/01/26 12:53:27;;;;;;;7.40;2.10;;;;;;;;;;4976498;28;20050;-85
2024/01/26 12:55:54;;;;;;;8.57;1.90;;;;;;;;;;4974885;28;20516;-81
2024/01/26 12:58:22;;;;;;;9.60;2.20;;;;;;;;;;4976171;28;20058;-81
2024/01/26 13:00:50;;;;;;;7.47;1.83;;;;;;;;;;4976480;28;20051;-81
2024/01/26 13:03:16;;;;;;;7.53;2.20;;;;;;;;;;4976164;28;20055;-80
2024/01/26 13:05:44;;;;;;;6.60;1.60;;;;;;;;;;4973917;28;20046;-80
2024/01/26 13:08:11;;;;;;;8.38;1.73;;;;;;;;;;4972579;28;20050;-79
2024/01/26 13:10:38;;;;;;;6.75;1.70;;;;;;;;;;4976086;28;20103;-79
2024/01/26 13:13:05;;;;;;;6.65;1.88;;;;;;;;;;4975712;28;20416;-79
2024/01/26 13:15:34;;;;;;;7.70;1.92;;;;;;;;;;4974464;28;20046;-79
2024/01/26 13:18:00;;;;;;;7.53;2.03;;;;;;;;;;4974377;28;20074;-79
2024/01/26 13:20:28;;;;;;;7.97;1.60;;;;;;;;;;4975325;28;20054;-78
2024/01/26 13:22:55;;;;;;;9.55;1.75;;;;;;;;;;4971979;28;20082;-79
2024/01/26 13:25:22;;;;;;;8.80;1.55;;;;;;;;;;4973845;28;20051;-78
2024/01/26 13:27:49;;;;;;;6.22;1.65;;;;;;;;;;4974074;28;20062;-79
2024/01/26 13:30:16;;;;;;;8.90;1.90;;;;;;;;;;4974327;28;20055;-79
2024/01/26 13:32:46;;;;;;;10.13;2.10;;;;;;;;;;4962621;28;20488;-80
2024/01/26 13:35:13;;;;;;;8.23;1.85;;;;;;;;;;4983196;28;20046;-81
2024/01/26 13:37:41;;;;;;;4.32;1.50;;;;;;;;;;4964466;28;20050;-78
2024/01/26 13:40:09;;;;;;;9.05;1.90;;;;;;;;;;4974503;28;20050;-79
2024/01/26 13:42:36;;;;;;;7.55;1.95;;;;;;;;;;4975925;28;20058;-79
2024/01/26 13:45:06;;;;;;;7.40;2.05;;;;;;;;;;4975365;28;20080;-83
2024/01/26 13:47:32;;;;;;;6.30;2.25;;;;;;;;;;4974804;28;20065;-82
2024/01/26 13:50:01;;;;;;;8.60;2.05;;;;;;;;;;4973886;28;20062;-81
2024/01/26 13:52:27;;;;;;;8.38;1.95;;;;;;;;;;4973329;28;20055;-80
2024/01/26 13:54:54;;;;;;;7.43;2.13;;;;;;;;;;4960898;28;20047;-81
2024/01/26 13:57:21;;;;;;;10.57;2.25;;;;;;;;;;4969179;28;20051;-80
2024/01/26 13:59:48;;;;;;;7.80;2.42;;;;;;;;;;4968311;28;20051;-80
2024/01/26 14:02:15;;;;;;;11.18;2.40;;;;;;;;;;4975030;28;20051;-80
2024/01/26 14:04:41;;;;;;;5.28;1.85;;;;;;;;;;4974595;28;20051;-80
2024/01/26 14:07:10;;;;;;;7.68;2.15;;;;;;;;;;4972444;28;20050;-80
2024/01/26 14:09:37;;;;;;;6.13;1.90;;;;;;;;;;4974987;28;20410;-79
2024/01/26 14:12:04;;;;;;;8.38;2.05;;;;;;;;;;4975056;28;20054;-80
2024/01/26 14:14:32;;;;;;;7.03;1.70;;;;;;;;;;4972762;28;20404;-80
2024/01/26 14:16:59;;;;;;;10.07;2.17;;;;;;;;;;4974934;28;20054;-78
2024/01/26 14:19:26;;;;;;;9.77;2.45;;;;;;;;;;4974917;28;20059;-80
2024/01/26 14:21:54;;;;;;;9.23;2.38;;;;;;;;;;4972320;28;20431;-81
2024/01/26 14:24:22;;;;;;;7.65;2.55;;;;;;;;;;4956156;28;20105;-79
2024/01/26 14:26:49;;;;;;;14.20;2.60;;;;;;;;;;4973589;28;20059;-79
2024/01/26 14:29:17;;;;;;;8.95;2.08;;;;;;;;;;4971089;28;20043;-80
2024/01/26 14:31:45;;;;;;;9.05;2.15;;;;;;;;;;4973734;28;20058;-79
2024/01/26 14:34:13;;;;;;;9.23;2.88;;;;;;;;;;4974085;28;20063;-79
2024/01/26 14:36:42;;;;;;;10.52;2.20;;;;;;;;;;4968579;28;20050;-78
2024/01/26 14:39:08;;;;;;;10.47;2.50;;;;;;;;;;4974556;28;20058;-78
2024/01/26 14:41:37;;;;;;;8.75;2.40;;;;;;;;;;4972601;28;20053;-80